Time;durP1;ratioP1;P1;durP2;ratioP2;P2;SDS_P1;SDS_P2;PMS_P1;PMS_P2;Temp;Humidity;BMP_temperature;BMP_pressure;BME280_temperature;BME280_humidity;BME280_pressure;Samples;Min_cycle;Max_cycle;Signal;HPM_P1;HPM_P2
2021/06/02 00:02:15;;;;;;;2.78;1.88;;;14.90;45.80;;;;;;5115897;28;20023;-79
2021/06/02 00:04:46;;;;;;;4.28;2.00;;;14.90;45.80;;;;;;5115868;28;20026;-80
2021/06/02 00:07:19;;;;;;;4.47;1.90;;;14.80;45.70;;;;;;5115803;28;20038;-80
2021/06/02 00:09:46;;;;;;;4.75;2.20;;;14.80;45.90;;;;;;5115996;28;20467;-79
2021/06/02 00:12:12;;;;;;;3.70;2.00;;;14.80;46.10;;;;;;5115722;28;20055;-78
2021/06/02 00:14:39;;;;;;;3.00;1.63;;;14.60;46.60;;;;;;5115740;28;20026;-78
2021/06/02 00:17:06;;;;;;;4.05;2.10;;;14.50;46.90;;;;;;5115770;28;20047;-78
2021/06/02 00:19:33;;;;;;;2.80;1.95;;;14.50;46.90;;;;;;5115736;28;20027;-79
2021/06/02 00:22:01;;;;;;;3.47;2.33;;;14.40;46.80;;;;;;5115617;28;20110;-79
2021/06/02 00:24:27;;;;;;;4.65;1.95;;;14.40;46.90;;;;;;5115499;28;20027;-80
2021/06/02 00:26:55;;;;;;;2.95;1.80;;;14.40;47.00;;;;;;5115509;28;20031;-79
2021/06/02 00:29:25;;;;;;;4.60;2.08;;;14.40;47.20;;;;;;5115493;28;20027;-79
2021/06/02 00:31:52;;;;;;;3.92;2.15;;;14.30;47.50;;;;;;5115443;28;20488;-79
2021/06/02 00:34:19;;;;;;;4.75;2.13;;;14.30;47.80;;;;;;5115145;28;20150;-79
2021/06/02 00:36:45;;;;;;;3.83;1.70;;;14.30;47.80;;;;;;5115507;28;20113;-79
2021/06/02 00:39:13;;;;;;;4.20;2.05;;;14.10;48.10;;;;;;5115143;28;20493;-79
2021/06/02 00:41:40;;;;;;;4.15;2.22;;;14.10;48.40;;;;;;5115266;28;20031;-78
2021/06/02 00:44:07;;;;;;;2.17;1.88;;;13.90;48.70;;;;;;5115168;28;20020;-78
2021/06/02 00:46:36;;;;;;;7.38;2.20;;;13.80;49.00;;;;;;5115110;28;20035;-79
2021/06/02 00:49:04;;;;;;;2.97;1.88;;;13.70;49.40;;;;;;5097378;28;20051;-78
2021/06/02 00:51:29;;;;;;;2.90;2.00;;;13.60;49.80;;;;;;5115121;28;20027;-79
2021/06/02 00:53:55;;;;;;;4.25;2.03;;;13.50;50.30;;;;;;5114872;28;20123;-79
2021/06/02 00:56:35;;;;;;;6.15;2.33;;;13.40;50.50;;;;;;5115079;28;20052;-79
2021/06/02 00:59:02;;;;;;;2.53;1.92;;;13.30;51.10;;;;;;5115262;28;20035;-79
2021/06/02 01:01:33;;;;;;;9.77;2.45;;;13.10;51.70;;;;;;5114210;28;20371;-79
2021/06/02 01:04:00;;;;;;;6.00;1.95;;;12.90;52.60;;;;;;5115017;28;20089;-80
2021/06/02 01:06:27;;;;;;;2.80;1.90;;;12.90;52.70;;;;;;5114663;28;20383;-79
2021/06/02 01:09:00;;;;;;;6.20;2.42;;;12.90;52.60;;;;;;5114883;28;20502;-79
2021/06/02 01:11:27;;;;;;;5.38;2.00;;;12.90;52.40;;;;;;5114658;28;20038;-79
2021/06/02 01:13:58;;;;;;;3.67;2.00;;;12.90;52.30;;;;;;5079133;28;20102;-79
2021/06/02 01:16:34;;;;;;;3.20;2.10;;;12.90;52.30;;;;;;5114569;28;20032;-79
2021/06/02 01:19:01;;;;;;;3.35;2.03;;;12.90;52.60;;;;;;5113423;28;20098;-79
2021/06/02 01:21:30;;;;;;;7.93;2.10;;;12.90;52.90;;;;;;5114443;28;20027;-79
2021/06/02 01:23:59;;;;;;;3.78;1.88;;;12.80;53.20;;;;;;5114501;28;20019;-79
2021/06/02 01:26:27;;;;;;;3.35;2.10;;;12.80;53.60;;;;;;5114354;28;20032;-79
2021/06/02 01:28:53;;;;;;;6.90;2.17;;;12.60;53.90;;;;;;5114593;28;20020;-78
2021/06/02 01:31:42;;;;;;;3.63;2.13;;;12.60;54.40;;;;;;5114402;28;20024;-79
2021/06/02 01:34:08;;;;;;;6.63;1.95;;;12.30;55.20;;;;;;5114444;28;20160;-79
2021/06/02 01:36:54;;;;;;;3.30;2.20;;;12.30;55.50;;;;;;5114195;28;20490;-79
2021/06/02 01:39:38;;;;;;;5.18;1.80;;;12.30;55.70;;;;;;5114311;28;20058;-78
2021/06/02 01:42:36;;;;;;;4.00;1.92;;;12.30;55.60;;;;;;5114244;28;20092;-79
2021/06/02 01:45:29;;;;;;;3.30;1.90;;;12.20;55.70;;;;;;5095774;28;20418;-79
2021/06/02 01:48:27;;;;;;;4.40;2.15;;;12.20;55.80;;;;;;5113927;28;20031;-80
2021/06/02 01:51:27;;;;;;;4.70;2.10;;;12.20;56.00;;;;;;5113891;28;20153;-80
2021/06/02 01:54:35;;;;;;;2.63;1.98;;;12.10;56.30;;;;;;5113610;28;20453;-80
2021/06/02 01:57:35;;;;;;;2.63;1.80;;;11.90;56.60;;;;;;5105385;28;20040;-79
2021/06/02 02:00:47;;;;;;;3.95;2.30;;;12.00;56.70;;;;;;5113714;28;20497;-79
2021/06/02 02:03:21;;;;;;;4.50;1.88;;;11.90;56.90;;;;;;5113582;28;20472;-79
2021/06/02 02:06:29;;;;;;;6.75;2.30;;;11.90;56.80;;;;;;5113612;28;20157;-80
2021/06/02 02:09:03;;;;;;;5.38;2.17;;;11.90;56.60;;;;;;5113579;28;20027;-80
2021/06/02 02:11:37;;;;;;;4.55;2.42;;;12.00;56.40;;;;;;5094389;28;20027;-80
2021/06/02 02:14:13;;;;;;;3.92;2.08;;;12.00;56.20;;;;;;5094924;28;20054;-79
2021/06/02 02:17:01;;;;;;;3.08;2.10;;;12.00;55.90;;;;;;5112816;28;20043;-80
2021/06/02 02:19:33;;;;;;;7.15;2.35;;;12.10;55.50;;;;;;5094672;28;20451;-80
2021/06/02 02:22:27;;;;;;;3.13;2.15;;;12.20;55.30;;;;;;5113195;28;20020;-80
2021/06/02 02:25:42;;;;;;;3.83;2.05;;;12.20;55.30;;;;;;5112016;28;20034;-80
2021/06/02 02:28:21;;;;;;;3.40;2.10;;;12.20;55.20;;;;;;5050319;28;20033;-80
2021/06/02 02:31:06;;;;;;;2.10;1.90;;;12.10;55.50;;;;;;5112053;28;20050;-79
2021/06/02 02:33:43;;;;;;;5.65;2.10;;;12.10;55.80;;;;;;5094843;28;20026;-80
2021/06/02 02:36:43;;;;;;;3.97;1.75;;;12.00;55.80;;;;;;5113065;28;20039;-80
2021/06/02 02:39:27;;;;;;;4.38;2.28;;;12.00;55.70;;;;;;5113273;28;20035;-80
2021/06/02 02:42:19;;;;;;;3.17;2.20;;;12.00;55.80;;;;;;5113443;28;20023;-81
2021/06/02 02:44:59;;;;;;;4.22;2.05;;;12.00;55.90;;;;;;5113237;28;20070;-81
2021/06/02 02:47:43;;;;;;;6.65;1.92;;;12.00;55.90;;;;;;5112910;28;20031;-80
2021/06/02 02:50:13;;;;;;;3.33;1.83;;;12.00;55.60;;;;;;5114639;28;20066;-80
2021/06/02 02:52:45;;;;;;;7.63;2.35;;;12.00;55.50;;;;;;5130581;27;20063;-79
2021/06/02 02:55:20;;;;;;;2.83;2.00;;;12.00;55.40;;;;;;5123415;27;20058;-80
2021/06/02 02:58:05;;;;;;;4.07;2.75;;;12.10;55.50;;;;;;5095318;28;20481;-80
2021/06/02 03:00:52;;;;;;;3.47;2.25;;;12.20;55.30;;;;;;5113629;28;20016;-80
2021/06/02 03:03:25;;;;;;;7.28;2.30;;;12.10;55.40;;;;;;5113069;28;20020;-81
2021/06/02 03:06:21;;;;;;;5.30;2.40;;;12.10;55.40;;;;;;5113354;28;20034;-79
2021/06/02 03:09:23;;;;;;;6.65;2.30;;;12.10;55.50;;;;;;5111955;28;20026;-79
2021/06/02 03:12:07;;;;;;;8.40;2.25;;;11.90;56.00;;;;;;5112871;28;20023;-80
2021/06/02 03:14:48;;;;;;;5.25;3.08;;;11.70;56.60;;;;;;5112723;28;20038;-79
2021/06/02 03:17:32;;;;;;;3.22;2.00;;;11.60;57.20;;;;;;5112708;28;20020;-79
2021/06/02 03:20:18;;;;;;;2.63;1.98;;;11.40;58.00;;;;;;5112914;28;20028;-80
2021/06/02 03:23:03;;;;;;;3.47;2.53;;;11.40;58.60;;;;;;5112712;28;20024;-79
2021/06/02 03:25:41;;;;;;;3.70;2.38;;;11.20;59.20;;;;;;5098190;28;20034;-80
2021/06/02 03:28:21;;;;;;;4.78;2.78;;;11.20;59.50;;;;;;5116764;28;20020;-80
2021/06/02 03:31:08;;;;;;;4.03;2.10;;;11.10;59.90;;;;;;5116579;28;20015;-80
2021/06/02 03:33:57;;;;;;;9.60;2.55;;;11.10;60.20;;;;;;5116705;28;20019;-80
2021/06/02 03:36:44;;;;;;;5.03;2.70;;;11.00;60.30;;;;;;5116655;28;20016;-79
2021/06/02 03:39:41;;;;;;;6.70;2.30;;;11.10;60.30;;;;;;5116489;28;20498;-80
2021/06/02 03:42:15;;;;;;;6.60;2.40;;;11.10;60.00;;;;;;5098243;28;20024;-80
2021/06/02 03:45:16;;;;;;;4.13;2.22;;;11.20;59.50;;;;;;5116504;28;20400;-80
2021/06/02 03:48:02;;;;;;;2.83;1.95;;;11.30;59.30;;;;;;5097919;28;20042;-80
2021/06/02 03:50:29;;;;;;;;;;;11.50;58.80;;;;;;5098357;28;20595;-80
2021/06/02 03:53:06;;;;;;;4.30;1.92;;;11.60;58.40;;;;;;5097811;28;19955;-81
2021/06/02 03:55:37;;;;;;;6.70;2.50;;;11.80;58.10;;;;;;5116219;28;20154;-81
2021/06/02 03:58:31;;;;;;;4.50;2.03;;;11.80;57.40;;;;;;5116312;28;20031;-80
2021/06/02 04:01:23;;;;;;;5.63;2.25;;;11.90;57.10;;;;;;5116167;28;20495;-80
2021/06/02 04:04:04;;;;;;;4.60;2.45;;;11.90;56.90;;;;;;5116141;28;20092;-79
2021/06/02 04:06:43;;;;;;;8.18;2.45;;;12.00;57.10;;;;;;5116085;28;20063;-80
2021/06/02 04:09:12;;;;;;;4.25;2.30;;;11.90;57.60;;;;;;5097613;28;20020;-80
2021/06/02 04:12:01;;;;;;;3.70;2.45;;;11.90;57.80;;;;;;5097390;28;20460;-79
2021/06/02 04:14:36;;;;;;;3.35;2.63;;;11.90;57.90;;;;;;5118902;28;20436;-79
2021/06/02 04:17:02;;;;;;;5.60;2.33;;;12.00;57.80;;;;;;5121232;28;20024;-79
2021/06/02 04:19:31;;;;;;;4.03;2.30;;;12.00;57.30;;;;;;5119290;28;20038;-79
2021/06/02 04:22:07;;;;;;;5.78;2.17;;;12.00;56.90;;;;;;5097929;28;20076;-79
2021/06/02 04:24:35;;;;;;;4.03;2.72;;;12.10;56.70;;;;;;5115671;28;20030;-78
2021/06/02 04:27:02;;;;;;;4.70;2.30;;;12.10;56.50;;;;;;5115669;28;20031;-79
2021/06/02 04:29:30;;;;;;;7.30;2.38;;;12.10;56.40;;;;;;5115638;28;20051;-79
2021/06/02 04:32:05;;;;;;;5.13;2.50;;;12.20;56.30;;;;;;5115561;28;20559;-78
2021/06/02 04:34:31;;;;;;;8.77;2.80;;;12.10;56.20;;;;;;5114650;28;20069;-79
2021/06/02 04:36:59;;;;;;;3.78;2.03;;;12.20;56.10;;;;;;5115689;28;20043;-79
2021/06/02 04:39:26;;;;;;;6.82;2.67;;;12.20;56.10;;;;;;5097260;28;20023;-79
2021/06/02 04:41:59;;;;;;;4.85;2.55;;;12.30;56.30;;;;;;5115422;28;20020;-78
2021/06/02 04:44:26;;;;;;;4.50;3.03;;;12.30;56.10;;;;;;5115886;28;20024;-79
2021/06/02 04:46:52;;;;;;;8.10;2.90;;;12.30;56.30;;;;;;5097560;28;20038;-80
2021/06/02 04:49:19;;;;;;;6.72;3.05;;;12.30;56.40;;;;;;5115642;28;20020;-80
2021/06/02 04:52:00;;;;;;;5.93;3.10;;;12.40;56.40;;;;;;5097327;28;20055;-79
2021/06/02 04:54:47;;;;;;;6.10;3.08;;;12.50;56.30;;;;;;5115648;28;20475;-79
2021/06/02 04:57:18;;;;;;;8.63;3.20;;;12.70;55.80;;;;;;5115569;28;20062;-80
2021/06/02 04:59:53;;;;;;;10.00;3.25;;;12.80;55.50;;;;;;5115404;28;20543;-80
2021/06/02 05:02:47;;;;;;;9.15;3.33;;;12.90;55.10;;;;;;5115621;28;20020;-81
2021/06/02 05:05:21;;;;;;;6.85;3.53;;;13.00;54.40;;;;;;5115007;28;20065;-81
2021/06/02 05:08:09;;;;;;;11.98;3.30;;;13.10;53.90;;;;;;5115357;28;20053;-80
2021/06/02 05:11:13;;;;;;;5.97;2.95;;;13.20;53.50;;;;;;5097146;28;20027;-79
2021/06/02 05:14:14;;;;;;;9.82;3.03;;;13.20;53.30;;;;;;5115228;28;20023;-80
2021/06/02 05:17:13;;;;;;;6.65;3.92;;;13.30;53.40;;;;;;5097039;28;20104;-80
2021/06/02 05:20:04;;;;;;;6.78;3.47;;;13.40;53.40;;;;;;5115295;28;20027;-82
2021/06/02 05:23:18;;;;;;;6.38;3.15;;;13.50;53.50;;;;;;5115231;28;20507;-81
2021/06/02 05:26:05;;;;;;;9.70;4.07;;;13.60;53.10;;;;;;5083190;28;20052;-79
2021/06/02 05:29:03;;;;;;;5.75;3.45;;;13.70;52.80;;;;;;5096478;28;20038;-81
2021/06/02 05:31:31;;;;;;;5.97;3.63;;;13.80;52.50;;;;;;5078321;28;20051;-81
2021/06/02 05:34:34;;;;;;;8.30;3.67;;;13.90;52.40;;;;;;5094559;28;20042;-82
2021/06/02 05:37:14;;;;;;;8.77;4.05;;;14.00;52.30;;;;;;5094440;28;20031;-81
2021/06/02 05:39:52;;;;;;;9.57;3.75;;;14.20;52.00;;;;;;5094241;28;20380;-81
2021/06/02 05:42:58;;;;;;;11.05;3.67;;;14.40;51.60;;;;;;5094122;28;20036;-81
2021/06/02 05:46:25;;;;;;;6.70;3.00;;;14.50;51.30;;;;;;5087265;28;20123;-81
2021/06/02 05:49:09;;;;;;;3.85;2.70;;;14.70;50.70;;;;;;5051957;28;20033;-81
2021/06/02 05:52:01;;;;;;;8.52;3.17;;;14.90;50.00;;;;;;5090591;28;20477;-82
2021/06/02 05:54:49;;;;;;;6.60;3.05;;;15.00;49.40;;;;;;5077740;28;20067;-81
2021/06/02 05:57:52;;;;;;;7.50;3.38;;;15.20;48.90;;;;;;5094043;28;20477;-80
2021/06/02 06:00:52;;;;;;;7.57;2.67;;;15.30;48.70;;;;;;5093772;28;20500;-80
2021/06/02 06:04:04;;;;;;;5.32;2.88;;;15.40;48.40;;;;;;5093809;28;20422;-79
2021/06/02 06:06:42;;;;;;;8.90;3.17;;;15.60;48.00;;;;;;5075875;28;20040;-81
2021/06/02 06:09:27;;;;;;;5.55;2.45;;;15.80;48.10;;;;;;5093795;28;20069;-81
2021/06/02 06:12:05;;;;;;;5.15;2.10;;;16.10;48.40;;;;;;5093808;28;20024;-81
2021/06/02 06:14:41;;;;;;;6.38;2.45;;;16.30;48.20;;;;;;5093657;28;20020;-81
2021/06/02 06:17:29;;;;;;;6.38;2.58;;;16.50;48.20;;;;;;5093523;28;20016;-80
2021/06/02 06:20:33;;;;;;;10.45;2.88;;;16.70;48.00;;;;;;5093345;28;20039;-80
2021/06/02 06:23:30;;;;;;;5.65;2.35;;;16.90;47.60;;;;;;5093073;28;20066;-81
2021/06/02 06:26:18;;;;;;;3.80;2.60;;;17.20;47.10;;;;;;5093556;28;20039;-80
2021/06/02 06:29:08;;;;;;;4.80;2.28;;;17.40;47.00;;;;;;5093321;28;20023;-80
2021/06/02 06:31:38;;;;;;;7.72;2.85;;;17.50;46.60;;;;;;5093507;28;20072;-80
2021/06/02 06:34:08;;;;;;;5.57;2.15;;;17.70;45.70;;;;;;5093223;28;20390;-81
2021/06/02 06:36:35;;;;;;;3.10;2.40;;;17.80;44.90;;;;;;5115356;28;20032;-80
2021/06/02 06:39:15;;;;;;;3.95;2.10;;;17.90;43.80;;;;;;5118643;28;20078;-80
2021/06/02 06:41:42;;;;;;;4.57;2.03;;;18.00;42.00;;;;;;5093492;28;20472;-80
2021/06/02 06:44:11;;;;;;;3.47;2.30;;;18.00;42.00;;;;;;5091537;28;20023;-80
2021/06/02 06:46:38;;;;;;;4.97;2.40;;;18.10;42.00;;;;;;5092264;28;20394;-80
2021/06/02 06:49:05;;;;;;;4.93;2.42;;;18.20;41.60;;;;;;5092619;28;20375;-81
2021/06/02 06:51:32;;;;;;;5.65;2.50;;;18.20;41.80;;;;;;5091800;28;20023;-81
2021/06/02 06:53:59;;;;;;;4.00;2.20;;;18.20;41.90;;;;;;5092727;28;20043;-80
2021/06/02 06:56:27;;;;;;;5.95;1.98;;;18.20;42.00;;;;;;5092963;28;20035;-82
2021/06/02 06:58:53;;;;;;;8.65;1.92;;;18.20;41.60;;;;;;5093163;28;20020;-81
2021/06/02 07:01:19;;;;;;;10.43;2.20;;;18.20;41.40;;;;;;5092892;28;20051;-80
2021/06/02 07:03:45;;;;;;;6.40;2.70;;;18.30;41.50;;;;;;5092918;28;20028;-81
2021/06/02 07:06:16;;;;;;;3.08;1.90;;;18.30;42.00;;;;;;5092739;28;20035;-82
2021/06/02 07:08:43;;;;;;;5.18;2.63;;;18.40;42.70;;;;;;5092779;28;20469;-75
2021/06/02 07:11:10;;;;;;;4.40;2.05;;;18.50;43.00;;;;;;5092897;28;20445;-85
2021/06/02 07:13:38;;;;;;;4.93;2.05;;;18.50;43.40;;;;;;5092959;28;20149;-81
2021/06/02 07:16:04;;;;;;;4.50;1.80;;;18.50;43.50;;;;;;5092784;28;20032;-79
2021/06/02 07:18:31;;;;;;;4.35;2.35;;;18.60;43.50;;;;;;5092591;28;20087;-80
2021/06/02 07:20:59;;;;;;;4.30;2.25;;;18.80;43.80;;;;;;5091457;28;20115;-78
2021/06/02 07:23:26;;;;;;;6.22;2.40;;;18.80;43.60;;;;;;5092671;28;20024;-81
2021/06/02 07:25:52;;;;;;;5.63;2.28;;;18.90;43.50;;;;;;5092876;28;20606;-79
2021/06/02 07:28:34;;;;;;;23.13;3.70;;;19.00;44.00;;;;;;5092504;28;20103;-76
2021/06/02 07:31:00;;;;;;;14.05;2.67;;;19.10;43.80;;;;;;5092707;28;20024;-77
2021/06/02 07:33:26;;;;;;;4.70;2.28;;;19.40;44.60;;;;;;5092360;28;20369;-77
2021/06/02 07:35:51;;;;;;;6.25;1.92;;;19.60;43.20;;;;;;5092592;28;20030;-77
2021/06/02 07:38:17;;;;;;;4.47;2.20;;;19.80;42.50;;;;;;5092269;28;20027;-77
2021/06/02 07:40:43;;;;;;;8.07;2.38;;;19.90;41.80;;;;;;5092534;28;20028;-78
2021/06/02 07:43:08;;;;;;;11.68;2.30;;;20.00;41.50;;;;;;5092260;28;20027;-78
2021/06/02 07:45:34;;;;;;;6.65;2.53;;;20.20;41.90;;;;;;5090857;28;20028;-78
2021/06/02 07:48:00;;;;;;;12.02;2.25;;;20.30;40.70;;;;;;5092293;28;20078;-77
2021/06/02 07:50:25;;;;;;;3.95;2.00;;;20.40;39.60;;;;;;5092268;28;20024;-76
2021/06/02 07:52:51;;;;;;;5.00;2.00;;;20.50;39.90;;;;;;5092070;28;20044;-77
2021/06/02 07:55:18;;;;;;;4.80;1.83;;;20.70;39.70;;;;;;5092203;28;20038;-77
2021/06/02 07:57:44;;;;;;;4.47;2.10;;;20.80;39.30;;;;;;5090956;28;20044;-78
2021/06/02 08:00:11;;;;;;;3.38;1.75;;;20.90;38.60;;;;;;5092191;28;20130;-77
2021/06/02 08:02:37;;;;;;;4.22;2.17;;;20.90;37.10;;;;;;5092051;28;20028;-77
2021/06/02 08:05:03;;;;;;;7.68;2.25;;;21.00;36.40;;;;;;5092035;28;20031;-77
2021/06/02 08:07:29;;;;;;;6.13;1.77;;;21.00;36.40;;;;;;5091896;28;20516;-77
2021/06/02 08:09:55;;;;;;;3.78;1.70;;;21.10;36.50;;;;;;5092698;28;20107;-78
2021/06/02 08:12:20;;;;;;;5.30;2.33;;;21.20;36.80;;;;;;5095586;28;20024;-78
2021/06/02 08:14:46;;;;;;;3.28;2.25;;;21.20;36.10;;;;;;5094173;28;20024;-77
2021/06/02 08:17:11;;;;;;;4.40;1.95;;;21.30;36.30;;;;;;5095621;28;20409;-78
2021/06/02 08:19:37;;;;;;;2.63;2.13;;;21.50;36.50;;;;;;5095631;28;20024;-77
2021/06/02 08:22:04;;;;;;;3.67;2.13;;;21.50;36.00;;;;;;5095780;28;20020;-76
2021/06/02 08:24:30;;;;;;;4.28;2.30;;;21.60;36.00;;;;;;5095633;28;20052;-77
2021/06/02 08:26:56;;;;;;;7.82;2.58;;;21.70;35.70;;;;;;5095442;28;20024;-77
2021/06/02 08:29:22;;;;;;;9.25;2.70;;;21.50;35.40;;;;;;5095481;28;20030;-76
2021/06/02 08:31:47;;;;;;;11.65;2.72;;;21.60;35.60;;;;;;5095586;28;20028;-80
2021/06/02 08:34:13;;;;;;;19.63;3.00;;;21.60;35.30;;;;;;5095678;28;20111;-77
2021/06/02 08:36:39;;;;;;;8.50;2.45;;;21.60;35.40;;;;;;5095426;28;20028;-76
2021/06/02 08:39:07;;;;;;;7.57;2.08;;;21.70;34.30;;;;;;5095143;28;20500;-76
2021/06/02 08:41:34;;;;;;;6.55;1.90;;;21.80;34.30;;;;;;5095322;28;20357;-76
2021/06/02 08:44:00;;;;;;;2.15;1.70;;;21.70;32.20;;;;;;5095170;28;20472;-76
2021/06/02 08:46:25;;;;;;;4.50;2.33;;;21.70;32.40;;;;;;5094884;28;20058;-77
2021/06/02 08:48:51;;;;;;;4.15;2.00;;;21.60;32.60;;;;;;5094807;28;20023;-77
2021/06/02 08:51:20;;;;;;;3.80;2.00;;;21.70;33.30;;;;;;5094411;28;20024;-76
2021/06/02 08:53:49;;;;;;;2.67;1.90;;;21.80;33.40;;;;;;5095105;28;20088;-77
2021/06/02 08:56:16;;;;;;;3.42;2.00;;;21.80;33.40;;;;;;5094367;28;20376;-77
2021/06/02 08:58:42;;;;;;;3.72;1.77;;;22.20;33.10;;;;;;5094960;28;20020;-77
2021/06/02 09:01:08;;;;;;;4.38;2.13;;;22.30;32.50;;;;;;5094775;28;20030;-76
2021/06/02 09:03:34;;;;;;;3.55;1.90;;;22.30;32.30;;;;;;5094721;28;20024;-77
2021/06/02 09:06:06;;;;;;;3.30;1.75;;;22.40;32.00;;;;;;5094683;28;20484;-77
2021/06/02 09:08:33;;;;;;;4.63;1.80;;;22.50;32.20;;;;;;5094387;28;20186;-77
2021/06/02 09:11:17;;;;;;;2.72;2.17;;;22.50;31.70;;;;;;5094631;28;20473;-76
2021/06/02 09:13:44;;;;;;;3.85;1.65;;;22.50;31.50;;;;;;5094689;28;20433;-77
2021/06/02 09:16:20;;;;;;;6.15;1.90;;;22.60;31.50;;;;;;5076322;28;20024;-83
2021/06/02 09:18:57;;;;;;;3.65;1.60;;;22.70;31.30;;;;;;5094785;28;20510;-82
2021/06/02 09:21:23;;;;;;;5.93;2.20;;;22.70;31.30;;;;;;5094248;28;20028;-83
2021/06/02 09:23:51;;;;;;;4.70;1.90;;;22.80;31.40;;;;;;5076796;28;20495;-82
2021/06/02 09:26:25;;;;;;;2.92;1.98;;;23.00;31.10;;;;;;5095843;28;20434;-82
2021/06/02 09:29:11;;;;;;;2.60;1.70;;;23.20;30.90;;;;;;5095276;28;20016;-82
2021/06/02 09:31:39;;;;;;;2.65;1.85;;;23.40;30.90;;;;;;5095352;28;20024;-83
2021/06/02 09:34:19;;;;;;;4.70;2.15;;;23.40;30.60;;;;;;5095184;28;20028;-82
2021/06/02 09:36:48;;;;;;;2.10;1.55;;;23.50;30.90;;;;;;5094438;28;20024;-83
2021/06/02 09:39:16;;;;;;;3.67;2.10;;;23.70;30.90;;;;;;5092794;28;20032;-80
2021/06/02 09:41:47;;;;;;;5.57;1.83;;;23.70;31.10;;;;;;5092131;28;20039;-82
2021/06/02 09:44:26;;;;;;;7.18;2.25;;;23.80;30.60;;;;;;5093872;28;20025;-82
2021/06/02 09:47:10;;;;;;;3.97;1.80;;;23.70;30.90;;;;;;5093882;28;20036;-81
2021/06/02 09:49:55;;;;;;;6.55;1.88;;;23.80;31.10;;;;;;5093685;28;20099;-82
2021/06/02 09:52:50;;;;;;;8.48;1.92;;;23.80;30.40;;;;;;5093627;28;20044;-81
2021/06/02 09:55:24;;;;;;;5.70;2.17;;;23.90;30.80;;;;;;5093630;28;20500;-81
2021/06/02 09:57:55;;;;;;;5.05;1.80;;;24.00;31.50;;;;;;5074835;28;20036;-82
2021/06/02 10:00:22;;;;;;;4.68;2.20;;;24.00;31.40;;;;;;5093250;28;20028;-81
2021/06/02 10:03:01;;;;;;;2.85;2.20;;;24.30;31.40;;;;;;5092533;28;20089;-82
2021/06/02 10:05:41;;;;;;;2.58;2.17;;;24.40;30.40;;;;;;5075046;28;20392;-82
2021/06/02 10:08:11;;;;;;;3.08;1.90;;;24.50;30.80;;;;;;5093452;28;20538;-82
2021/06/02 10:10:37;;;;;;;3.05;1.80;;;24.50;30.40;;;;;;5094294;28;20024;-82
2021/06/02 10:13:09;;;;;;;4.90;2.30;;;24.70;31.00;;;;;;5092649;28;20488;-81
2021/06/02 10:15:46;;;;;;;3.92;1.98;;;24.70;30.70;;;;;;5076365;28;20104;-86
2021/06/02 10:18:29;;;;;;;4.20;2.00;;;24.80;30.80;;;;;;5076326;28;20062;-85
2021/06/02 10:21:08;;;;;;;3.10;1.80;;;25.00;29.80;;;;;;5099334;28;20085;-84
2021/06/02 10:23:43;;;;;;;4.22;2.03;;;25.10;29.60;;;;;;5100875;28;20031;-83
2021/06/02 10:26:11;;;;;;;2.35;1.63;;;25.10;29.00;;;;;;5101429;28;20028;-83
2021/06/02 10:28:37;;;;;;;6.85;2.10;;;25.30;28.50;;;;;;5118039;28;20012;-83
2021/06/02 10:31:05;;;;;;;6.60;1.80;;;25.30;28.20;;;;;;5105520;28;20053;-81
2021/06/02 10:33:33;;;;;;;2.90;1.55;;;25.20;27.50;;;;;;5092093;28;20073;-84
2021/06/02 10:36:01;;;;;;;1.58;1.45;;;25.20;26.90;;;;;;5092373;28;20032;-84
2021/06/02 10:38:31;;;;;;;2.25;1.58;;;25.40;26.90;;;;;;5092099;28;20437;-83
2021/06/02 10:40:59;;;;;;;4.18;1.88;;;25.60;27.50;;;;;;5093586;28;20062;-83
2021/06/02 10:43:45;;;;;;;5.85;1.90;;;25.60;27.40;;;;;;5091846;28;20088;-84
2021/06/02 10:46:22;;;;;;;2.00;1.60;;;25.60;27.20;;;;;;5093553;28;20024;-83
2021/06/02 10:48:53;;;;;;;2.20;1.42;;;25.80;26.90;;;;;;5092873;28;20060;-82
2021/06/02 10:51:31;;;;;;;4.68;1.75;;;25.80;27.50;;;;;;5098236;28;20028;-82
2021/06/02 10:54:18;;;;;;;3.35;1.60;;;26.10;28.00;;;;;;5093220;28;20051;-81
2021/06/02 10:57:02;;;;;;;3.45;1.65;;;26.20;26.60;;;;;;5091634;28;20024;-83
2021/06/02 10:59:29;;;;;;;3.70;1.77;;;26.10;26.50;;;;;;5093149;28;20051;-83
2021/06/02 11:02:02;;;;;;;2.78;1.23;;;26.10;26.90;;;;;;5091681;28;20024;-83
2021/06/02 11:04:28;;;;;;;2.20;1.45;;;26.20;26.30;;;;;;5091781;28;20021;-83
2021/06/02 11:06:54;;;;;;;4.53;2.60;;;26.50;25.70;;;;;;5091538;28;20043;-83
2021/06/02 11:09:23;;;;;;;3.88;1.55;;;26.70;25.50;;;;;;5074832;28;20541;-83
2021/06/02 11:12:02;;;;;;;3.88;1.50;;;26.70;25.30;;;;;;5074827;28;20020;-82
2021/06/02 11:14:28;;;;;;;1.73;1.38;;;26.80;25.10;;;;;;5075026;28;20027;-83
2021/06/02 11:17:02;;;;;;;4.43;1.73;;;26.80;23.90;;;;;;5091354;28;20024;-83
2021/06/02 11:19:46;;;;;;;4.03;1.85;;;27.00;24.80;;;;;;5092480;28;20099;-83
2021/06/02 11:22:26;;;;;;;5.72;1.63;;;27.30;24.90;;;;;;5092957;28;20036;-83
2021/06/02 11:24:54;;;;;;;3.85;1.67;;;27.50;24.60;;;;;;5091867;28;20185;-83
2021/06/02 11:27:19;;;;;;;2.92;1.25;;;27.20;23.90;;;;;;5074307;28;20141;-83
2021/06/02 11:29:48;;;;;;;2.90;1.52;;;26.80;23.40;;;;;;5092896;28;20101;-83
2021/06/02 11:32:28;;;;;;;2.10;1.67;;;27.00;24.10;;;;;;5092991;28;20034;-83
2021/06/02 11:35:01;;;;;;;1.65;1.55;;;27.40;23.90;;;;;;5092829;28;20024;-83
2021/06/02 11:37:28;;;;;;;2.53;1.50;;;27.80;23.00;;;;;;5092830;28;20801;-84
2021/06/02 11:39:57;;;;;;;2.75;1.50;;;28.10;23.00;;;;;;5092871;28;20032;-84
2021/06/02 11:42:39;;;;;;;3.72;1.55;;;28.30;22.80;;;;;;5074967;28;20449;-88
2021/06/02 11:45:16;;;;;;;2.40;1.50;;;28.30;22.80;;;;;;5095579;28;20031;-79
2021/06/02 11:47:52;;;;;;;1.60;1.50;;;28.00;22.00;;;;;;5096470;28;20068;-83
2021/06/02 11:50:19;;;;;;;2.72;1.58;;;27.90;21.80;;;;;;5096693;28;20020;-85
2021/06/02 11:52:52;;;;;;;3.47;1.77;;;28.00;22.10;;;;;;5097046;28;20122;-84
2021/06/02 11:55:18;;;;;;;3.15;1.33;;;28.20;21.50;;;;;;5096669;28;20477;-82
2021/06/02 11:57:46;;;;;;;1.77;1.10;;;28.30;21.10;;;;;;5096917;28;20028;-84
2021/06/02 12:00:17;;;;;;;5.05;1.50;;;28.20;20.80;;;;;;5097088;28;20020;-85
2021/06/02 12:02:45;;;;;;;6.63;1.60;;;28.40;20.60;;;;;;5098048;28;20468;-85
2021/06/02 12:05:22;;;;;;;2.47;1.70;;;28.60;21.10;;;;;;5098155;28;20443;-85
2021/06/02 12:07:55;;;;;;;1.67;1.30;;;28.60;21.20;;;;;;5101074;28;20027;-83
2021/06/02 12:10:34;;;;;;;2.88;1.75;;;28.50;20.90;;;;;;5099452;28;20024;-83
2021/06/02 12:13:01;;;;;;;3.40;1.40;;;28.30;20.60;;;;;;5097940;28;20078;-84
2021/06/02 12:15:38;;;;;;;4.28;1.52;;;28.20;20.90;;;;;;5103555;28;20020;-81
2021/06/02 12:18:04;;;;;;;3.53;1.42;;;28.20;20.90;;;;;;5101149;28;20051;-83
2021/06/02 12:20:32;;;;;;;3.38;1.40;;;28.20;20.80;;;;;;5097914;28;20461;-86
2021/06/02 12:22:57;;;;;;;2.08;1.60;;;28.20;20.70;;;;;;5098036;28;20020;-81
2021/06/02 12:25:25;;;;;;;2.00;1.33;;;28.50;20.50;;;;;;5100266;28;20059;-78
2021/06/02 12:27:52;;;;;;;3.90;1.35;;;28.60;20.90;;;;;;5097208;28;20032;-81
2021/06/02 12:30:21;;;;;;;2.25;1.45;;;28.40;20.90;;;;;;5097083;28;20020;-81
2021/06/02 12:32:51;;;;;;;1.40;1.30;;;28.70;20.50;;;;;;5096856;28;20063;-81
2021/06/02 12:35:39;;;;;;;2.05;1.30;;;28.70;20.10;;;;;;5095655;28;20548;-82
2021/06/02 12:38:26;;;;;;;3.90;1.60;;;29.20;20.20;;;;;;5094550;28;20040;-83
2021/06/02 12:41:02;;;;;;;1.85;1.50;;;29.60;19.40;;;;;;5095916;28;20032;-81
2021/06/02 12:43:38;;;;;;;2.25;1.48;;;29.90;18.90;;;;;;5096028;28;20386;-81
2021/06/02 12:46:15;;;;;;;2.00;1.58;;;30.10;19.50;;;;;;5095883;28;20028;-83
2021/06/02 12:48:41;;;;;;;2.50;1.60;;;29.80;18.70;;;;;;5094717;28;20361;-83
2021/06/02 12:51:12;;;;;;;3.65;2.00;;;29.40;19.30;;;;;;5095590;28;20476;-84
2021/06/02 12:53:44;;;;;;;4.20;1.77;;;29.40;19.70;;;;;;5095200;28;20052;-84
2021/06/02 12:56:10;;;;;;;3.53;1.70;;;29.30;19.90;;;;;;5094420;28;20024;-83
2021/06/02 12:58:37;;;;;;;4.80;1.92;;;29.20;20.00;;;;;;5095445;28;20016;-82
2021/06/02 13:01:05;;;;;;;4.88;1.50;;;29.30;20.10;;;;;;5095021;28;20450;-84
2021/06/02 13:03:31;;;;;;;5.65;2.17;;;29.50;20.20;;;;;;5095332;28;20061;-84
2021/06/02 13:05:57;;;;;;;3.08;1.83;;;29.70;20.00;;;;;;5095051;28;20028;-84
2021/06/02 13:08:23;;;;;;;3.13;1.50;;;29.40;19.90;;;;;;5093880;28;20032;-82
2021/06/02 13:10:49;;;;;;;3.33;1.80;;;29.20;20.00;;;;;;5094983;28;20095;-82
2021/06/02 13:13:16;;;;;;;5.22;1.48;;;29.40;19.80;;;;;;5095082;28;20032;-83
2021/06/02 13:15:54;;;;;;;6.13;1.80;;;29.20;19.40;;;;;;5095941;28;20024;-85
2021/06/02 13:18:23;;;;;;;3.92;1.50;;;29.20;19.60;;;;;;5094074;28;20110;-81
2021/06/02 13:20:50;;;;;;;2.90;1.58;;;29.20;19.80;;;;;;5095186;28;20024;-82
2021/06/02 13:23:31;;;;;;;1.85;1.40;;;28.80;19.80;;;;;;5094271;28;20107;-82
2021/06/02 13:26:07;;;;;;;1.92;1.40;;;29.00;20.30;;;;;;5094425;28;20020;-82
2021/06/02 13:28:42;;;;;;;4.07;1.52;;;29.20;20.10;;;;;;5094495;28;20039;-82